Vremea acum in Chisineu Cris - Romania

Vrei sa afli care e starea vremii acum in Arad - Romania? Dorim sa iti furnizam starea vremii pentru Arad - Romania. Starea vremii Arad - Romania pentru astazi.

Vremea acum in Chisineu Cris

Temperatura: 6 °C

Se simte ca: 6 °C
Innorat: 0 %
Precipitatii: 0 %
Presiune atmosferica: 1022 hPa
Umiditate: 81%
Vizibilitate: 10 km
Vantul bate din ESE cu 0 km/h

Evolutia vremii in Chisineu Cris pe ore

Ora: 08:00
Parțial noros
Temperatura: 13.5°C
Sansa de precipitatii: 0%
Ora Descriere Temp Se simte Precipitatii Umiditate Vant
00:00Parțial noros14.9°15°0%34%ESE 6.1 KM/H
01:00Parțial noros14.6°14.8°0%36%ESE 5.4 KM/H
02:00Parțial noros14.3°14.6°0%37%SE 5 KM/H
03:00Parțial noros13.8°14°0%38%ESE 5 KM/H
04:00Parțial noros13.4°13.5°0%39%ESE 5.4 KM/H
05:00Parțial noros12.9°12.9°0%41%ESE 5.4 KM/H
06:00Parțial noros13.1°13.1°0%40%ESE 5.4 KM/H
07:00Parțial noros13.3°13.4°0%40%ESE 5.8 KM/H
08:00Parțial noros13.5°13.6°0%40%ESE 5.8 KM/H
09:00Parțial noros15.9°15.9°0%35%E 6.1 KM/H
10:00Parțial noros18.2°18.3°0%30%E 6.5 KM/H
11:00Parțial noros20.6°20.6°0%25%E 6.8 KM/H
12:00Parțial noros21.8°21.8°0%23%ENE 7.2 KM/H
13:00Parțial noros23°22.4°0%21%ENE 7.6 KM/H
14:00Parțial noros24.2°23.3°0%19%ENE 7.9 KM/H
15:00Parțial noros23.6°23.1°0%21%NE 7.2 KM/H
16:00Parțial noros23°23°0%22%NE 6.8 KM/H
17:00Parțial noros22.4°22.8°0%24%NNE 6.1 KM/H
18:00Parțial noros21°21°0%26%NNE 6.5 KM/H
19:00Parțial noros19.5°19.5°0%29%NE 6.5 KM/H
20:00Parțial noros18.1°18.1°0%31%NE 6.8 KM/H
21:00Parțial noros17.4°17.4°0%33%ENE 6.1 KM/H
22:00Parțial noros16.8°16.8°0%35%E 5.8 KM/H
23:00Parțial noros16.1°16.1°0%37%ESE 5 KM/H